Time;durP1;ratioP1;P1;durP2;ratioP2;P2;SDS_P1;SDS_P2;PMS_P1;PMS_P2;Temp;Humidity;BMP_temperature;BMP_pressure;BME280_temperature;BME280_humidity;BME280_pressure;Samples;Min_cycle;Max_cycle;Signal;HPM_P1;HPM_P2
2023/05/30 00:00:45;;;;;;;2.30;2.10;;;24.70;49.90;;;;;;5067382;28;20056;-67
2023/05/30 00:03:12;;;;;;;2.83;2.15;;;24.80;50.00;;;;;;5075364;28;20052;-67
2023/05/30 00:05:39;;;;;;;2.60;2.00;;;24.70;49.90;;;;;;5075660;28;20524;-67
2023/05/30 00:08:07;;;;;;;2.55;2.35;;;24.70;49.90;;;;;;5075581;28;20090;-67
2023/05/30 00:10:34;;;;;;;2.22;2.13;;;24.80;50.00;;;;;;5075513;28;20048;-66
2023/05/30 00:13:02;;;;;;;2.05;1.95;;;24.70;49.90;;;;;;5075450;28;20174;-67
2023/05/30 00:15:31;;;;;;;2.20;2.00;;;24.80;50.00;;;;;;5075399;28;20061;-66
2023/05/30 00:18:00;;;;;;;2.70;2.50;;;24.70;50.00;;;;;;5075587;28;20044;-66
2023/05/30 00:20:30;;;;;;;2.30;2.10;;;24.80;50.00;;;;;;5074536;28;20048;-66
2023/05/30 00:23:01;;;;;;;2.28;2.17;;;24.70;49.90;;;;;;5075384;28;20048;-66
2023/05/30 00:25:28;;;;;;;;;;;24.70;50.00;;;;;;5075918;28;20076;-66
2023/05/30 00:27:55;;;;;;;1.92;1.83;;;24.70;50.00;;;;;;5075313;28;19967;-66
2023/05/30 00:30:23;;;;;;;2.38;2.17;;;24.70;49.90;;;;;;5075132;28;20044;-66
2023/05/30 00:32:50;;;;;;;2.50;2.30;;;24.70;50.00;;;;;;5075013;28;20532;-66
2023/05/30 00:35:17;;;;;;;2.47;2.03;;;24.70;50.00;;;;;;5075023;28;20110;-66
2023/05/30 00:37:44;;;;;;;1.95;1.85;;;24.70;50.00;;;;;;5074874;28;20048;-67
2023/05/30 00:40:12;;;;;;;1.90;1.80;;;24.70;50.00;;;;;;5074954;28;20044;-67
2023/05/30 00:42:39;;;;;;;2.28;2.08;;;24.70;50.00;;;;;;5074790;28;20170;-67
2023/05/30 00:45:07;;;;;;;2.47;2.28;;;24.70;50.00;;;;;;5074295;28;20543;-66
2023/05/30 00:47:35;;;;;;;1.90;1.80;;;24.70;50.00;;;;;;5074774;28;20052;-66
2023/05/30 00:50:03;;;;;;;2.80;2.13;;;24.70;50.00;;;;;;5074803;28;20082;-66
2023/05/30 00:52:30;;;;;;;2.42;2.22;;;24.70;50.00;;;;;;5074579;28;20091;-66
2023/05/30 00:55:02;;;;;;;2.20;2.10;;;24.70;50.00;;;;;;5074953;28;20048;-66
2023/05/30 00:57:33;;;;;;;2.20;2.10;;;24.70;50.00;;;;;;5074774;28;20051;-66
2023/05/30 01:00:03;;;;;;;2.40;2.20;;;24.60;50.00;;;;;;5074454;28;20056;-67
2023/05/30 01:02:34;;;;;;;2.45;2.25;;;24.70;50.00;;;;;;5074416;28;20045;-66
2023/05/30 01:05:02;;;;;;;2.20;2.00;;;24.70;50.10;;;;;;5073918;28;20060;-66
2023/05/30 01:07:29;;;;;;;2.60;2.40;;;24.70;50.10;;;;;;5074443;28;20044;-66
2023/05/30 01:09:57;;;;;;;2.33;2.13;;;24.70;50.10;;;;;;5074697;28;20131;-66
2023/05/30 01:12:55;;;;;;;2.25;2.10;;;24.70;50.10;;;;;;5074116;28;20045;-66
2023/05/30 01:15:28;;;;;;;3.13;2.38;;;24.70;50.10;;;;;;5073629;28;20170;-66
2023/05/30 01:18:13;;;;;;;2.40;2.20;;;24.70;50.10;;;;;;5074431;28;20080;-67
2023/05/30 01:20:45;;;;;;;2.05;1.95;;;24.70;50.10;;;;;;5074506;28;20052;-66
2023/05/30 01:23:45;;;;;;;2.20;2.03;;;24.60;50.10;;;;;;5074055;28;20135;-66
2023/05/30 01:26:26;;;;;;;;;;;24.60;50.10;;;;;;5074269;28;20447;-66
2023/05/30 01:28:55;;;;;;;2.45;2.25;;;24.60;50.10;;;;;;5074067;28;19974;-67
2023/05/30 01:31:24;;;;;;;2.30;2.20;;;24.60;50.20;;;;;;5072984;28;20048;-66
2023/05/30 01:33:53;;;;;;;1.92;1.83;;;24.60;50.20;;;;;;5074424;28;20131;-67
2023/05/30 01:36:20;;;;;;;2.42;2.22;;;24.60;50.20;;;;;;5074191;28;20401;-67
2023/05/30 01:38:47;;;;;;;1.85;1.75;;;24.60;50.20;;;;;;5073960;28;20098;-66
2023/05/30 01:41:24;;;;;;;1.77;1.67;;;24.60;50.20;;;;;;5073984;28;20056;-66
2023/05/30 01:44:03;;;;;;;3.70;1.90;;;24.60;50.20;;;;;;5053798;28;20094;-67
2023/05/30 01:46:36;;;;;;;2.13;2.03;;;24.50;50.20;;;;;;5053714;28;20477;-66
2023/05/30 01:49:27;;;;;;;2.00;1.88;;;24.60;50.20;;;;;;5053363;28;20095;-67
2023/05/30 01:51:59;;;;;;;1.77;1.67;;;24.50;50.20;;;;;;5053772;28;20045;-66
2023/05/30 01:54:30;;;;;;;1.98;1.80;;;24.50;50.20;;;;;;5053659;28;20488;-67
2023/05/30 01:57:12;;;;;;;2.00;1.90;;;24.60;50.20;;;;;;5053401;28;20053;-66
2023/05/30 01:59:40;;;;;;;1.92;1.80;;;24.50;50.20;;;;;;5053322;28;20091;-66
2023/05/30 02:02:09;;;;;;;2.10;2.00;;;24.50;50.20;;;;;;5053451;28;20060;-67
2023/05/30 02:04:37;;;;;;;2.40;2.20;;;24.50;50.20;;;;;;5052213;28;20480;-66
2023/05/30 02:07:04;;;;;;;2.35;2.15;;;24.50;50.20;;;;;;5053177;28;20119;-66
2023/05/30 02:09:32;;;;;;;2.03;1.92;;;24.60;50.20;;;;;;5053490;28;20044;-66
2023/05/30 02:12:01;;;;;;;1.98;1.88;;;24.60;50.20;;;;;;5053194;28;20053;-66
2023/05/30 02:14:29;;;;;;;2.33;2.08;;;24.50;50.20;;;;;;5052363;28;20404;-66
2023/05/30 02:16:59;;;;;;;1.75;1.65;;;24.60;50.20;;;;;;5051896;28;20511;-66
2023/05/30 02:19:26;;;;;;;1.88;1.77;;;24.60;50.20;;;;;;5052367;28;20099;-66
2023/05/30 02:21:53;;;;;;;1.92;1.83;;;24.60;50.20;;;;;;5053484;28;20049;-67
2023/05/30 02:24:24;;;;;;;2.15;2.03;;;24.60;50.20;;;;;;5052981;28;20084;-66
2023/05/30 02:26:52;;;;;;;1.92;1.83;;;24.60;50.20;;;;;;5053022;28;20099;-67
2023/05/30 02:29:19;;;;;;;2.00;1.90;;;24.60;50.20;;;;;;5053331;28;20056;-67
2023/05/30 02:31:46;;;;;;;2.25;2.05;;;24.60;50.20;;;;;;5053002;28;20045;-67
2023/05/30 02:34:13;;;;;;;3.00;2.10;;;24.60;50.20;;;;;;5053357;28;20061;-66
2023/05/30 02:36:40;;;;;;;2.33;2.20;;;24.60;50.20;;;;;;5053074;28;20489;-66
2023/05/30 02:39:08;;;;;;;1.88;1.77;;;24.60;50.20;;;;;;5053149;28;20079;-67
2023/05/30 02:41:37;;;;;;;2.20;2.08;;;24.60;50.20;;;;;;5053311;28;20125;-67
2023/05/30 02:44:06;;;;;;;1.90;1.80;;;24.60;50.10;;;;;;5051693;28;20080;-67
2023/05/30 02:46:34;;;;;;;1.92;1.83;;;24.60;50.10;;;;;;5052858;28;20090;-66
2023/05/30 02:49:02;;;;;;;2.58;2.35;;;24.60;50.10;;;;;;5052691;28;20057;-67
2023/05/30 02:51:29;;;;;;;2.30;2.20;;;24.60;50.10;;;;;;5052898;28;20496;-66
2023/05/30 02:53:56;;;;;;;2.58;1.80;;;24.60;50.10;;;;;;5052770;28;20045;-66
2023/05/30 02:56:27;;;;;;;1.58;1.48;;;24.60;50.20;;;;;;5053232;28;20056;-67
2023/05/30 02:58:56;;;;;;;1.85;1.75;;;24.60;50.10;;;;;;5052678;28;20128;-66
2023/05/30 03:01:23;;;;;;;2.35;2.13;;;24.50;50.10;;;;;;5053006;28;20044;-67
2023/05/30 03:03:50;;;;;;;2.88;2.08;;;24.60;50.10;;;;;;5052717;28;20052;-66
2023/05/30 03:06:19;;;;;;;1.73;1.63;;;24.60;50.10;;;;;;5052664;28;20045;-66
2023/05/30 03:08:59;;;;;;;1.95;1.83;;;24.60;50.10;;;;;;5052608;28;20106;-66
2023/05/30 03:11:26;;;;;;;1.90;1.80;;;24.60;50.20;;;;;;5053036;28;20102;-66
2023/05/30 03:13:55;;;;;;;1.70;1.60;;;24.50;50.10;;;;;;5052546;28;20080;-66
2023/05/30 03:16:22;;;;;;;1.83;1.73;;;24.50;50.10;;;;;;5053006;28;20124;-66
2023/05/30 03:18:49;;;;;;;1.90;1.77;;;24.60;50.20;;;;;;5052566;28;20135;-67
2023/05/30 03:21:16;;;;;;;2.22;2.10;;;24.50;50.10;;;;;;5052874;28;20049;-67
2023/05/30 03:23:44;;;;;;;1.88;1.77;;;24.50;50.10;;;;;;5052700;28;20412;-67
2023/05/30 03:26:11;;;;;;;1.75;1.65;;;24.50;50.10;;;;;;5051645;28;20126;-67
2023/05/30 03:28:38;;;;;;;2.08;1.83;;;24.50;50.20;;;;;;5053030;28;20056;-66
2023/05/30 03:31:05;;;;;;;2.15;1.95;;;24.50;50.10;;;;;;5056296;28;20049;-67
2023/05/30 03:33:32;;;;;;;2.00;1.90;;;24.50;50.10;;;;;;5056638;28;20045;-66
2023/05/30 03:36:00;;;;;;;2.03;1.92;;;24.50;50.10;;;;;;5056188;28;20049;-67
2023/05/30 03:38:27;;;;;;;1.92;1.83;;;24.50;50.10;;;;;;5055890;28;20155;-66
2023/05/30 03:40:54;;;;;;;1.92;1.83;;;24.50;50.10;;;;;;5056069;28;20052;-67
2023/05/30 03:43:22;;;;;;;2.33;1.88;;;24.50;50.10;;;;;;5056274;28;20060;-67
2023/05/30 03:45:49;;;;;;;3.13;2.25;;;24.60;50.10;;;;;;5056231;28;20095;-66
2023/05/30 03:48:17;;;;;;;2.25;2.05;;;24.60;50.10;;;;;;5075440;28;20404;-68
2023/05/30 03:50:44;;;;;;;1.90;1.80;;;24.60;50.10;;;;;;5075908;28;20500;-69
2023/05/30 03:53:11;;;;;;;1.70;1.60;;;24.60;50.10;;;;;;5074861;28;20059;-68
2023/05/30 03:55:39;;;;;;;2.05;1.95;;;24.60;50.30;;;;;;5076244;28;20048;-67
2023/05/30 03:58:06;;;;;;;2.10;1.90;;;24.60;50.00;;;;;;5075655;28;20098;-67
2023/05/30 04:00:34;;;;;;;1.67;1.58;;;24.60;50.00;;;;;;5073292;28;20084;-68
2023/05/30 04:03:01;;;;;;;3.00;1.70;;;24.60;50.00;;;;;;5055513;28;20559;-67
2023/05/30 04:05:28;;;;;;;2.03;1.92;;;24.60;49.90;;;;;;5056734;28;20466;-67
2023/05/30 04:07:55;;;;;;;2.38;2.17;;;24.60;49.90;;;;;;5073989;28;20048;-67
2023/05/30 04:10:23;;;;;;;3.00;1.80;;;24.70;49.90;;;;;;5075746;28;20138;-69
2023/05/30 04:12:50;;;;;;;1.88;1.77;;;24.70;49.90;;;;;;5075874;28;20048;-68
2023/05/30 04:15:17;;;;;;;1.92;1.83;;;24.70;49.80;;;;;;5075850;28;20048;-67
2023/05/30 04:17:44;;;;;;;1.70;1.60;;;24.70;49.80;;;;;;5075571;28;20052;-67
2023/05/30 04:20:12;;;;;;;1.73;1.63;;;24.70;49.80;;;;;;5071989;28;20084;-68
2023/05/30 04:22:39;;;;;;;2.53;2.33;;;24.70;49.70;;;;;;5073919;28;20044;-67
2023/05/30 04:25:07;;;;;;;2.33;2.20;;;24.70;49.70;;;;;;5074615;28;20393;-67
2023/05/30 04:27:36;;;;;;;1.75;1.65;;;24.70;49.70;;;;;;5074916;28;20049;-68
2023/05/30 04:30:04;;;;;;;2.33;2.13;;;24.80;49.70;;;;;;5075133;28;20056;-67
2023/05/30 04:32:33;;;;;;;2.03;1.90;;;24.80;49.60;;;;;;5070691;28;20286;-67
2023/05/30 04:35:03;;;;;;;1.60;1.50;;;24.80;49.60;;;;;;5058234;28;20401;-67
2023/05/30 04:37:30;;;;;;;2.97;1.95;;;24.80;49.50;;;;;;5075388;28;20102;-66
2023/05/30 04:39:57;;;;;;;2.45;2.28;;;24.80;49.50;;;;;;5074109;28;20060;-67
2023/05/30 04:42:28;;;;;;;2.10;2.00;;;24.80;49.50;;;;;;5073369;28;20565;-67
2023/05/30 04:44:55;;;;;;;2.47;2.28;;;24.80;49.50;;;;;;5075761;28;20044;-67
2023/05/30 04:47:24;;;;;;;2.05;1.95;;;24.80;49.50;;;;;;5055668;28;20061;-66
2023/05/30 04:49:55;;;;;;;2.70;2.50;;;24.90;49.50;;;;;;5074154;28;20045;-66
2023/05/30 04:52:23;;;;;;;;;;;24.90;49.50;;;;;;5075150;28;20045;-66
2023/05/30 04:54:50;;;;;;;2.30;2.20;;;24.90;49.50;;;;;;5074710;28;19936;-66
2023/05/30 04:57:17;;;;;;;2.63;2.42;;;24.80;49.50;;;;;;5074124;28;20056;-66
2023/05/30 04:59:44;;;;;;;2.92;2.67;;;24.80;49.60;;;;;;5065248;28;20126;-66
2023/05/30 05:02:12;;;;;;;2.08;1.80;;;24.90;49.60;;;;;;5068032;28;20045;-66
2023/05/30 05:04:40;;;;;;;4.05;2.40;;;24.90;49.60;;;;;;5074070;28;20425;-66
2023/05/30 05:07:07;;;;;;;2.35;2.15;;;24.90;49.50;;;;;;5074438;28;20078;-66
2023/05/30 05:09:34;;;;;;;3.03;2.67;;;24.90;49.50;;;;;;5065063;28;20044;-66
2023/05/30 05:12:03;;;;;;;2.80;2.60;;;24.90;49.50;;;;;;5074350;28;20452;-74
2023/05/30 05:14:30;;;;;;;3.20;2.15;;;24.90;49.40;;;;;;5073613;28;20049;-66
2023/05/30 05:16:57;;;;;;;3.28;2.78;;;24.90;49.50;;;;;;5071763;28;20052;-67
2023/05/30 05:19:24;;;;;;;2.63;2.42;;;24.90;49.40;;;;;;5069994;28;20040;-67
2023/05/30 05:21:51;;;;;;;2.88;2.67;;;24.90;49.40;;;;;;5067529;28;20128;-64
2023/05/30 05:24:20;;;;;;;2.63;2.42;;;25.00;49.40;;;;;;5066959;28;20102;-63
2023/05/30 05:26:47;;;;;;;3.15;2.38;;;25.00;49.40;;;;;;5060728;28;20041;-63
2023/05/30 05:29:15;;;;;;;2.58;2.38;;;25.00;49.30;;;;;;5067138;28;20064;-63
2023/05/30 05:31:42;;;;;;;6.97;2.95;;;25.00;49.20;;;;;;5063483;28;20222;-64
2023/05/30 05:34:10;;;;;;;2.75;2.50;;;25.10;49.20;;;;;;5067070;28;20457;-62
2023/05/30 05:36:38;;;;;;;4.22;2.90;;;25.10;49.20;;;;;;5068309;28;20048;-62
2023/05/30 05:39:05;;;;;;;4.22;3.10;;;25.10;49.10;;;;;;5065626;28;20118;-65
2023/05/30 05:41:32;;;;;;;2.97;2.50;;;25.20;49.00;;;;;;5068055;28;20048;-62
2023/05/30 05:44:00;;;;;;;4.50;2.47;;;25.10;49.00;;;;;;5059536;28;20480;-63
2023/05/30 05:46:27;;;;;;;2.97;2.72;;;25.20;49.00;;;;;;5065326;28;20098;-63
2023/05/30 05:48:55;;;;;;;4.07;2.55;;;25.20;49.00;;;;;;5063584;28;20071;-64
2023/05/30 05:51:22;;;;;;;7.35;3.20;;;25.20;48.90;;;;;;5056597;28;20052;-64
2023/05/30 05:53:52;;;;;;;5.88;3.92;;;25.30;48.80;;;;;;5058564;28;20113;-64
2023/05/30 05:56:21;;;;;;;3.97;3.50;;;25.20;48.70;;;;;;5060797;28;20044;-64
2023/05/30 05:58:48;;;;;;;3.40;3.08;;;25.20;48.80;;;;;;5063624;28;20076;-63
2023/05/30 06:01:16;;;;;;;2.97;2.67;;;25.20;49.20;;;;;;5062565;28;20076;-61
2023/05/30 06:03:43;;;;;;;4.05;3.00;;;25.20;49.20;;;;;;5061770;28;20062;-62
2023/05/30 06:06:11;;;;;;;4.72;2.78;;;25.20;49.10;;;;;;5060931;28;20488;-61
2023/05/30 06:08:38;;;;;;;4.90;2.92;;;25.30;49.00;;;;;;5062873;28;20090;-61
2023/05/30 06:11:07;;;;;;;4.20;3.80;;;25.30;49.10;;;;;;5063718;28;20052;-61
2023/05/30 06:13:34;;;;;;;5.00;2.90;;;25.30;48.90;;;;;;5066659;28;20048;-60
2023/05/30 06:16:01;;;;;;;3.72;3.33;;;25.30;49.00;;;;;;5067766;28;20057;-64
2023/05/30 06:18:28;;;;;;;5.30;4.35;;;25.30;49.40;;;;;;5062533;28;20127;-63
2023/05/30 06:20:56;;;;;;;10.25;3.88;;;25.30;49.50;;;;;;5060209;28;20044;-68
2023/05/30 06:23:25;;;;;;;10.63;4.80;;;25.30;49.60;;;;;;5064244;28;20079;-64
2023/05/30 06:25:53;;;;;;;7.07;3.92;;;25.30;49.70;;;;;;5060871;28;20052;-63
2023/05/30 06:28:21;;;;;;;6.80;3.30;;;25.40;49.80;;;;;;5065320;28;20052;-61
2023/05/30 06:30:48;;;;;;;8.93;4.70;;;25.40;49.50;;;;;;5061866;28;20044;-64
2023/05/30 06:33:20;;;;;;;7.45;4.60;;;25.50;49.20;;;;;;5063250;28;20040;-63
2023/05/30 06:35:47;;;;;;;6.93;4.68;;;25.40;49.40;;;;;;5060708;28;20049;-62
2023/05/30 06:38:19;;;;;;;6.55;4.45;;;25.40;48.70;;;;;;5062926;28;20040;-60
2023/05/30 06:40:46;;;;;;;9.93;4.55;;;25.30;48.80;;;;;;5061986;28;20058;-62
2023/05/30 06:43:13;;;;;;;5.50;3.80;;;25.20;49.00;;;;;;5078932;28;20122;-63
2023/05/30 06:45:42;;;;;;;7.32;3.92;;;25.10;49.40;;;;;;5062157;28;20044;-65
2023/05/30 06:48:10;;;;;;;7.57;3.88;;;25.10;49.60;;;;;;5064121;28;20045;-61
2023/05/30 06:50:37;;;;;;;5.95;4.60;;;25.10;49.80;;;;;;5062010;28;20504;-63
2023/05/30 06:53:04;;;;;;;11.45;4.70;;;25.00;49.80;;;;;;5063398;28;20078;-62
2023/05/30 06:55:31;;;;;;;7.50;3.97;;;25.00;49.60;;;;;;5064066;28;20098;-62
2023/05/30 06:57:59;;;;;;;7.70;3.45;;;25.00;49.50;;;;;;5059917;28;20773;-60
2023/05/30 07:00:27;;;;;;;5.65;3.70;;;24.90;49.60;;;;;;5067469;28;20044;-61
2023/05/30 07:02:54;;;;;;;3.92;3.30;;;24.90;49.80;;;;;;5067140;28;20052;-60
2023/05/30 07:05:21;;;;;;;8.73;4.03;;;24.90;49.80;;;;;;5064270;28;20134;-61
2023/05/30 07:07:48;;;;;;;10.50;4.00;;;24.90;50.00;;;;;;5071329;28;20056;-62
2023/05/30 07:10:16;;;;;;;5.05;3.38;;;25.00;50.50;;;;;;5066627;28;20049;-61
2023/05/30 07:12:43;;;;;;;7.55;3.83;;;25.00;49.80;;;;;;5069342;28;20052;-62
2023/05/30 07:15:13;;;;;;;;;;;25.10;49.60;;;;;;5066822;28;20095;-67
2023/05/30 07:17:42;;;;;;;11.82;3.45;;;25.10;49.10;;;;;;5067762;28;20011;-64
2023/05/30 07:20:12;;;;;;;10.65;3.53;;;25.10;49.50;;;;;;5071527;28;20048;-61
2023/05/30 07:22:39;;;;;;;9.80;4.43;;;25.10;49.30;;;;;;5066382;28;20041;-63
2023/05/30 07:25:06;;;;;;;8.63;3.60;;;25.10;49.00;;;;;;5064738;28;20106;-60
2023/05/30 07:27:34;;;;;;;7.45;3.75;;;25.10;49.20;;;;;;5069172;28;20053;-62
2023/05/30 07:30:01;;;;;;;4.82;3.83;;;25.10;49.20;;;;;;5069630;28;20094;-61
2023/05/30 07:32:29;;;;;;;8.10;4.30;;;25.10;49.00;;;;;;5069380;28;20174;-62
2023/05/30 07:34:56;;;;;;;5.63;3.38;;;25.10;48.70;;;;;;5067386;28;20127;-62
2023/05/30 07:37:23;;;;;;;4.70;3.72;;;25.10;49.00;;;;;;5067273;28;20047;-60
2023/05/30 07:39:51;;;;;;;4.55;3.83;;;25.20;49.30;;;;;;5069876;28;20098;-64
2023/05/30 07:42:18;;;;;;;10.80;3.85;;;25.20;49.20;;;;;;5066918;28;20439;-62
2023/05/30 07:44:46;;;;;;;7.75;4.15;;;25.30;49.10;;;;;;5069432;28;20044;-63
2023/05/30 07:47:13;;;;;;;7.85;3.97;;;25.40;48.80;;;;;;5065904;28;20091;-63
2023/05/30 07:49:40;;;;;;;4.72;3.50;;;25.40;48.40;;;;;;5068493;28;20098;-63
2023/05/30 07:52:07;;;;;;;10.48;3.85;;;25.50;48.40;;;;;;5067980;28;20040;-60
2023/05/30 07:54:34;;;;;;;4.72;3.47;;;25.60;48.20;;;;;;5065941;28;20443;-61
2023/05/30 07:57:02;;;;;;;5.43;3.78;;;25.60;47.20;;;;;;5073139;28;20112;-65
2023/05/30 07:59:29;;;;;;;9.25;4.45;;;25.70;47.20;;;;;;5066535;28;20059;-64
2023/05/30 08:01:57;;;;;;;5.53;3.45;;;25.70;46.70;;;;;;5068026;28;20678;-63
2023/05/30 08:04:25;;;;;;;7.40;3.60;;;25.70;45.90;;;;;;5066445;28;20055;-64
2023/05/30 08:06:52;;;;;;;5.57;3.83;;;25.70;45.10;;;;;;5066067;28;20046;-63
2023/05/30 08:09:20;;;;;;;7.28;3.17;;;25.70;44.60;;;;;;5068260;28;20044;-63
2023/05/30 08:11:47;;;;;;;7.78;3.40;;;25.70;45.00;;;;;;5068873;28;20051;-64
2023/05/30 08:14:14;;;;;;;12.38;3.92;;;25.70;45.30;;;;;;5063820;28;20496;-63
2023/05/30 08:16:41;;;;;;;9.00;3.33;;;25.80;45.20;;;;;;5064635;28;20078;-64
2023/05/30 08:19:09;;;;;;;13.45;3.50;;;25.90;45.50;;;;;;5064932;28;20056;-67
2023/05/30 08:21:37;;;;;;;8.07;4.10;;;25.90;45.30;;;;;;5064196;28;20123;-65
2023/05/30 08:24:07;;;;;;;15.05;4.53;;;25.90;45.40;;;;;;5066810;28;20037;-67
2023/05/30 08:26:35;;;;;;;6.35;4.00;;;25.90;45.40;;;;;;5064883;28;20044;-66
2023/05/30 08:29:03;;;;;;;3.55;3.22;;;25.90;45.40;;;;;;5066984;28;20056;-66
2023/05/30 08:31:31;;;;;;;6.47;3.42;;;26.00;45.70;;;;;;5065733;28;20052;-66
2023/05/30 08:34:02;;;;;;;6.55;3.53;;;26.00;45.30;;;;;;5070838;28;20044;-67
2023/05/30 08:36:31;;;;;;;4.90;3.10;;;26.00;45.60;;;;;;5067380;28;20131;-64
2023/05/30 08:38:58;;;;;;;7.18;3.33;;;26.10;45.80;;;;;;5066864;28;20047;-67
2023/05/30 08:41:46;;;;;;;7.20;3.92;;;26.10;45.70;;;;;;5069532;28;20059;-63
2023/05/30 08:44:13;;;;;;;11.05;3.78;;;26.20;45.70;;;;;;5066072;28;21100;-65
2023/05/30 08:46:42;;;;;;;7.45;3.50;;;26.20;45.60;;;;;;5070182;28;20045;-65
2023/05/30 08:49:13;;;;;;;4.00;3.35;;;26.20;45.90;;;;;;5066807;28;20056;-62
2023/05/30 08:51:43;;;;;;;6.97;3.63;;;26.30;46.00;;;;;;5068376;28;20040;-61
2023/05/30 08:54:17;;;;;;;8.23;3.50;;;26.40;46.20;;;;;;5064468;28;20704;-65
2023/05/30 08:56:58;;;;;;;8.95;4.07;;;26.40;45.80;;;;;;5061041;28;20059;-61
2023/05/30 08:59:28;;;;;;;8.93;4.03;;;26.40;45.60;;;;;;5064767;28;20139;-61
2023/05/30 09:01:57;;;;;;;6.35;3.67;;;26.50;45.60;;;;;;5067488;28;20064;-61
2023/05/30 09:04:26;;;;;;;5.47;3.97;;;26.50;45.50;;;;;;5064555;28;20053;-61
2023/05/30 09:06:57;;;;;;;5.78;3.65;;;26.50;45.50;;;;;;5066421;28;20098;-64
2023/05/30 09:09:24;;;;;;;7.30;3.40;;;26.50;45.70;;;;;;5065572;28;20120;-62
2023/05/30 09:11:53;;;;;;;5.80;4.53;;;26.50;45.80;;;;;;5062120;28;20044;-66
2023/05/30 09:14:20;;;;;;;5.88;3.45;;;26.50;45.90;;;;;;5064115;28;20113;-62
2023/05/30 09:16:47;;;;;;;5.25;2.92;;;26.50;46.00;;;;;;5064244;28;20110;-63
2023/05/30 09:19:15;;;;;;;6.88;3.75;;;26.50;46.00;;;;;;5064667;28;20048;-65
2023/05/30 09:21:43;;;;;;;5.38;3.67;;;26.50;46.00;;;;;;5063677;28;20053;-65
2023/05/30 09:24:11;;;;;;;9.73;4.45;;;26.50;46.00;;;;;;5064870;28;20049;-64
2023/05/30 09:26:56;;;;;;;6.75;3.50;;;26.50;46.00;;;;;;5063012;28;20488;-62
2023/05/30 09:29:24;;;;;;;9.77;4.20;;;26.50;46.20;;;;;;5067369;28;20089;-66
2023/05/30 09:31:52;;;;;;;4.90;3.25;;;26.60;46.20;;;;;;5064325;28;20045;-62
2023/05/30 09:34:19;;;;;;;5.68;3.63;;;26.60;46.20;;;;;;5067360;28;20401;-65
2023/05/30 09:36:54;;;;;;;4.88;3.33;;;26.60;46.20;;;;;;5069463;28;20048;-66
2023/05/30 09:39:25;;;;;;;6.82;3.75;;;26.70;46.20;;;;;;5066031;28;20068;-65
2023/05/30 09:41:56;;;;;;;6.82;4.07;;;26.70;45.60;;;;;;5066461;28;20102;-65
2023/05/30 09:44:24;;;;;;;7.95;4.45;;;26.60;45.50;;;;;;5064729;28;20544;-65
2023/05/30 09:46:57;;;;;;;6.32;3.25;;;26.60;45.60;;;;;;5060394;28;20588;-64
2023/05/30 09:49:28;;;;;;;8.45;3.88;;;26.60;45.60;;;;;;5060777;28;20051;-64
2023/05/30 09:51:55;;;;;;;7.25;3.50;;;26.60;45.40;;;;;;5063071;28;20515;-65
2023/05/30 09:54:23;;;;;;;8.05;3.50;;;26.60;45.30;;;;;;5064759;28;20083;-65
2023/05/30 09:56:52;;;;;;;6.95;4.60;;;26.60;45.30;;;;;;5067244;28;20435;-65
2023/05/30 09:59:25;;;;;;;7.05;3.88;;;26.60;45.00;;;;;;5068691;28;20055;-63
2023/05/30 10:01:52;;;;;;;6.72;3.33;;;26.60;45.00;;;;;;5067289;28;20048;-62
2023/05/30 10:04:24;;;;;;;7.70;4.43;;;26.60;45.10;;;;;;5062679;28;20048;-62
2023/05/30 10:06:53;;;;;;;5.00;3.25;;;26.60;45.20;;;;;;5062397;28;20052;-63
2023/05/30 10:09:22;;;;;;;6.68;3.10;;;26.70;45.20;;;;;;5068461;28;20044;-62
2023/05/30 10:11:52;;;;;;;4.63;3.38;;;26.80;45.20;;;;;;5065616;28;20488;-63
2023/05/30 10:14:20;;;;;;;8.90;3.10;;;26.90;45.20;;;;;;5046728;28;20048;-63
2023/05/30 10:17:04;;;;;;;5.22;3.28;;;26.90;45.10;;;;;;5063600;28;20048;-61
2023/05/30 10:19:43;;;;;;;4.53;3.53;;;27.00;45.10;;;;;;5063163;28;20040;-62
2023/05/30 10:22:12;;;;;;;4.10;3.43;;;27.10;44.90;;;;;;5063523;28;20075;-62
2023/05/30 10:24:43;;;;;;;4.93;3.13;;;27.10;44.90;;;;;;5054964;28;20040;-61
2023/05/30 10:27:17;;;;;;;4.72;3.03;;;27.00;45.20;;;;;;5059325;28;20101;-61
2023/05/30 10:29:47;;;;;;;4.10;3.00;;;27.00;45.30;;;;;;5068621;28;20067;-63
2023/05/30 10:32:23;;;;;;;5.65;3.88;;;27.00;45.40;;;;;;5067193;28;20443;-63
2023/05/30 10:35:00;;;;;;;8.90;3.67;;;26.90;45.50;;;;;;5069017;28;20048;-62
2023/05/30 10:37:27;;;;;;;5.35;3.20;;;26.90;45.70;;;;;;5056658;28;20049;-61
2023/05/30 10:40:34;;;;;;;6.72;3.72;;;26.80;46.00;;;;;;5065044;28;20049;-62
2023/05/30 10:43:25;;;;;;;6.45;3.33;;;26.80;46.20;;;;;;5065708;28;20053;-61
2023/05/30 10:46:22;;;;;;;6.07;3.72;;;26.70;46.30;;;;;;5064051;28;20435;-60
2023/05/30 10:48:58;;;;;;;4.32;3.15;;;26.70;46.30;;;;;;5062925;28;20504;-62
2023/05/30 10:51:26;;;;;;;9.18;3.78;;;26.70;46.40;;;;;;5061337;28;20446;-62
2023/05/30 10:54:00;;;;;;;9.15;3.53;;;26.70;46.50;;;;;;5059573;28;20455;-62
2023/05/30 10:56:40;;;;;;;4.43;3.15;;;26.70;46.70;;;;;;5060037;28;20142;-61
2023/05/30 10:59:17;;;;;;;9.35;2.97;;;26.60;46.90;;;;;;5063700;28;20071;-61
2023/05/30 11:02:04;;;;;;;4.95;2.90;;;26.60;47.00;;;;;;5060914;28;20040;-60
2023/05/30 11:04:37;;;;;;;5.80;3.38;;;26.70;47.10;;;;;;5061904;28;20082;-60
2023/05/30 11:07:12;;;;;;;4.70;3.00;;;26.60;47.10;;;;;;5068321;28;20151;-61
2023/05/30 11:10:03;;;;;;;8.02;2.97;;;26.60;47.10;;;;;;5061945;28;20131;-61
2023/05/30 11:12:39;;;;;;;5.40;3.13;;;26.60;47.30;;;;;;5058886;28;20051;-59
2023/05/30 11:15:06;;;;;;;4.57;2.80;;;26.60;47.40;;;;;;5060028;28;20063;-59
2023/05/30 11:17:37;;;;;;;5.32;3.03;;;26.60;47.60;;;;;;5064185;28;20045;-61
2023/05/30 11:20:14;;;;;;;5.07;3.00;;;26.60;47.50;;;;;;5063983;28;20044;-61
2023/05/30 11:23:21;;;;;;;7.07;3.28;;;26.60;47.70;;;;;;5066657;28;20040;-60
2023/05/30 11:25:51;;;;;;;4.55;3.38;;;26.60;47.60;;;;;;5063806;28;20048;-61
2023/05/30 11:28:34;;;;;;;4.28;3.10;;;26.60;47.50;;;;;;5068225;28;20506;-61
2023/05/30 11:31:15;;;;;;;5.85;3.28;;;26.60;48.20;;;;;;5066173;28;20127;-60
2023/05/30 11:33:45;;;;;;;5.05;2.83;;;26.60;47.60;;;;;;5065627;28;20403;-61
2023/05/30 11:36:13;;;;;;;7.15;3.13;;;26.60;47.70;;;;;;5066416;28;20070;-60
2023/05/30 11:38:45;;;;;;;6.97;3.58;;;26.60;47.80;;;;;;5065672;28;20049;-60
2023/05/30 11:41:15;;;;;;;3.58;2.70;;;26.60;47.80;;;;;;5065573;28;20041;-60
2023/05/30 11:43:43;;;;;;;4.63;3.17;;;26.50;47.70;;;;;;5059945;28;20103;-61
2023/05/30 11:46:12;;;;;;;3.53;3.22;;;26.50;47.80;;;;;;5066435;28;20301;-61
2023/05/30 11:48:40;;;;;;;7.45;3.53;;;26.50;47.90;;;;;;5062536;28;20516;-61
2023/05/30 11:51:08;;;;;;;3.60;2.67;;;26.50;48.00;;;;;;5068535;28;20044;-60
2023/05/30 11:53:36;;;;;;;7.28;2.78;;;26.50;48.00;;;;;;5068255;28;20053;-61
2023/05/30 11:56:03;;;;;;;4.65;2.60;;;26.50;48.10;;;;;;5067690;28;20056;-61
2023/05/30 11:58:30;;;;;;;5.45;2.50;;;26.50;48.10;;;;;;5071941;28;21431;-63
2023/05/30 12:00:59;;;;;;;4.18;3.00;;;26.60;48.10;;;;;;5064844;28;20087;-62
2023/05/30 12:03:27;;;;;;;3.90;2.80;;;26.60;48.10;;;;;;5067957;28;20484;-62
2023/05/30 12:05:57;;;;;;;6.85;3.13;;;26.50;48.40;;;;;;5068889;28;20048;-62
2023/05/30 12:08:24;;;;;;;6.00;2.67;;;26.50;48.30;;;;;;5065510;28;20550;-62
2023/05/30 12:10:55;;;;;;;3.38;2.95;;;26.60;48.30;;;;;;5068860;28;20484;-62
2023/05/30 12:13:22;;;;;;;6.18;3.30;;;26.50;48.30;;;;;;5071449;28;20047;-64
2023/05/30 12:15:51;;;;;;;5.53;3.10;;;26.50;48.40;;;;;;5068022;28;20074;-62
2023/05/30 12:18:19;;;;;;;6.10;3.20;;;26.50;48.40;;;;;;5065464;28;20326;-64
2023/05/30 12:20:48;;;;;;;6.10;3.40;;;26.60;48.40;;;;;;5069298;28;20056;-64
2023/05/30 12:23:24;;;;;;;2.90;2.47;;;26.50;48.30;;;;;;5067766;28;20143;-62
2023/05/30 12:25:53;;;;;;;4.18;2.92;;;26.50;48.30;;;;;;5066168;28;20083;-62
2023/05/30 12:28:21;;;;;;;5.38;3.60;;;26.50;48.40;;;;;;5067974;28;20110;-62
2023/05/30 12:30:50;;;;;;;4.97;2.80;;;26.50;48.40;;;;;;5066141;28;20082;-60
2023/05/30 12:33:21;;;;;;;8.43;2.80;;;26.50;48.50;;;;;;5071167;28;20492;-61
2023/05/30 12:35:53;;;;;;;3.47;2.72;;;26.60;48.50;;;;;;5068719;28;20043;-64
2023/05/30 12:38:21;;;;;;;9.52;3.67;;;26.60;48.50;;;;;;5068837;28;20056;-63
2023/05/30 12:40:49;;;;;;;8.45;2.53;;;26.70;48.40;;;;;;5065388;28;20047;-64
2023/05/30 12:43:26;;;;;;;4.93;3.17;;;26.70;48.20;;;;;;5066745;28;20049;-64
2023/05/30 12:45:59;;;;;;;6.03;2.70;;;26.70;48.10;;;;;;5071328;28;20151;-62
2023/05/30 12:48:27;;;;;;;7.53;3.85;;;26.70;48.00;;;;;;5068569;28;20056;-63
2023/05/30 12:50:55;;;;;;;9.18;3.15;;;26.80;48.00;;;;;;5068072;28;20044;-65
2023/05/30 12:53:23;;;;;;;7.20;3.00;;;26.80;48.00;;;;;;5063629;28;20068;-65
2023/05/30 12:55:50;;;;;;;5.32;3.42;;;26.90;48.00;;;;;;5068245;28;20076;-62
2023/05/30 12:58:17;;;;;;;4.85;2.70;;;26.90;47.90;;;;;;5068243;28;20500;-60
2023/05/30 13:00:44;;;;;;;8.88;3.17;;;26.90;47.90;;;;;;5065967;28;20048;-61